Time;durP1;ratioP1;P1;durP2;ratioP2;P2;SDS_P1;SDS_P2;PMS_P1;PMS_P2;Temp;Humidity;BMP_temperature;BMP_pressure;BME280_temperature;BME280_humidity;BME280_pressure;Samples;Min_cycle;Max_cycle;Signal;HPM_P1;HPM_P2
2023/12/11 00:02:40;;;;;;;14.73;13.33;;;;;;;21.89;31.16;94998.16;6159988;28;109119;-58
2023/12/11 00:05:43;;;;;;;14.90;13.60;;;;;;;21.88;31.11;95001.91;6160831;28;109248;-57
2023/12/11 00:08:46;;;;;;;15.50;14.10;;;;;;;21.90;31.27;95006.91;6159967;28;109057;-58
2023/12/11 00:11:51;;;;;;;14.73;13.40;;;;;;;21.89;31.37;95008.81;6134826;28;110343;-58
2023/12/11 00:14:54;;;;;;;15.17;13.67;;;;;;;21.89;31.17;95013.34;6155173;28;109504;-58
2023/12/11 00:18:01;;;;;;;14.57;13.17;;;;;;;21.87;31.02;95020.84;6159792;28;109201;-58
2023/12/11 00:21:05;;;;;;;15.50;14.10;;;;;;;21.88;31.17;95017.09;6158056;28;108839;-58
2023/12/11 00:24:08;;;;;;;14.87;13.50;;;;;;;21.87;31.42;95020.84;6147990;28;109215;-58
2023/12/11 00:27:13;;;;;;;14.13;12.83;;;;;;;21.88;31.12;95019.75;6159900;28;110637;-58
2023/12/11 00:30:16;;;;;;;14.90;13.40;;;;;;;21.87;31.02;95024.31;6159120;28;110821;-58
2023/12/11 00:33:19;;;;;;;15.00;13.50;;;;;;;21.86;31.34;95032.59;6160446;28;109128;-58
2023/12/11 00:36:22;;;;;;;14.33;13.03;;;;;;;21.85;31.40;95023.81;6148766;28;108990;-58
2023/12/11 00:39:25;;;;;;;13.90;12.70;;;;;;;21.85;31.38;95021.16;6158317;28;109605;-58
2023/12/11 00:42:30;;;;;;;14.77;13.37;;;;;;;21.86;31.30;95033.38;6168339;28;109229;-58
2023/12/11 00:45:33;;;;;;;14.20;12.80;;;;;;;21.87;31.37;95036.84;6162220;28;109045;-59
2023/12/11 00:48:37;;;;;;;13.97;12.57;;;;;;;21.87;31.10;95026.19;6161542;28;110475;-58
2023/12/11 00:51:40;;;;;;;13.43;12.13;;;;;;;21.88;31.29;95023.22;6168630;28;110102;-58
2023/12/11 00:54:43;;;;;;;13.37;12.07;;;;;;;21.87;31.33;95026.97;6148693;28;110336;-58
2023/12/11 00:57:48;;;;;;;13.17;11.97;;;;;;;21.88;31.02;95038.41;6156853;28;109750;-58
2023/12/11 01:00:51;;;;;;;14.07;12.77;;;;;;;21.85;31.40;95031.81;6167063;28;109236;-58
2023/12/11 01:03:54;;;;;;;12.77;11.60;;;;;;;21.87;31.01;95029.63;6168524;28;110569;-58
2023/12/11 01:06:58;;;;;;;13.10;12.00;;;;;;;21.87;31.48;95034.19;6165788;28;109044;-58
2023/12/11 01:10:01;;;;;;;12.33;11.23;;;;;;;21.86;30.70;95030.72;6155651;28;109168;-57
2023/12/11 01:13:06;;;;;;;12.87;11.67;;;;;;;21.87;31.10;95034.19;6168413;28;109566;-57
2023/12/11 01:16:09;;;;;;;12.83;11.63;;;;;;;21.86;31.07;95030.72;6160732;28;109095;-58
2023/12/11 01:19:13;;;;;;;12.70;11.60;;;;;;;21.85;30.95;95023.03;6163774;28;109135;-60
2023/12/11 01:22:16;;;;;;;12.93;11.77;;;;;;;21.85;30.83;95023.81;6159536;28;110141;-58
2023/12/11 01:25:19;;;;;;;12.93;11.73;;;;;;;21.86;30.86;95021.94;6167784;28;109138;-58
2023/12/11 01:28:24;;;;;;;12.47;11.33;;;;;;;21.85;30.81;95029.16;6166976;28;110571;-58
2023/12/11 01:31:27;;;;;;;12.20;11.10;;;;;;;21.83;31.05;95020.66;6156591;28;109600;-57
2023/12/11 01:34:30;;;;;;;12.07;10.87;;;;;;;21.83;31.26;95020.66;6165535;28;109284;-57
2023/12/11 01:37:33;;;;;;;13.47;12.27;;;;;;;21.85;30.84;95017.72;6145807;28;112064;-58
2023/12/11 01:40:36;;;;;;;12.00;10.90;;;;;;;21.83;31.44;95020.66;6167878;28;109363;-58
2023/12/11 01:43:41;;;;;;;11.70;10.60;;;;;;;21.83;31.21;95010.00;6155950;28;109344;-58
2023/12/11 01:46:45;;;;;;;11.20;10.27;;;;;;;21.84;30.77;95016.91;6165233;28;109565;-57
2023/12/11 01:49:48;;;;;;;12.30;11.17;;;;;;;21.84;31.20;95014.22;6142869;28;110560;-58
2023/12/11 01:52:51;;;;;;;11.43;10.33;;;;;;;21.83;30.75;95007.34;6138263;28;109004;-58
2023/12/11 01:55:55;;;;;;;12.20;11.00;;;;;;;21.84;31.21;95005.47;6129147;28;109997;-58
2023/12/11 01:58:59;;;;;;;13.03;11.80;;;;;;;21.83;30.82;95010.00;6156579;28;108897;-58
2023/12/11 02:02:03;;;;;;;12.87;11.67;;;;;;;21.84;30.76;95000.91;6161841;28;110077;-58
2023/12/11 02:05:06;;;;;;;10.67;9.53;;;;;;;21.84;30.94;95010.78;6133524;28;109289;-58
2023/12/11 02:08:10;;;;;;;11.77;10.67;;;;;;;21.83;31.09;95004.66;6147965;28;110062;-58
2023/12/11 02:11:14;;;;;;;11.90;10.77;;;;;;;21.83;31.15;95009.22;6162668;28;109381;-58
2023/12/11 02:14:18;;;;;;;10.97;9.87;;;;;;;21.85;30.76;95013.16;6153732;28;109491;-58
2023/12/11 02:17:21;;;;;;;11.63;10.53;;;;;;;21.84;30.80;94997.47;6152112;28;109084;-59
2023/12/11 02:20:24;;;;;;;12.40;11.00;;;;;;;21.83;31.10;94993.22;6161408;28;109266;-58
2023/12/11 02:23:32;;;;;;;11.40;10.37;;;;;;;21.83;30.72;94988.69;6161594;28;109414;-58
2023/12/11 02:26:37;;;;;;;11.23;10.13;;;;;;;21.84;31.06;94989.47;6158081;28;109411;-59
2023/12/11 02:29:40;;;;;;;10.70;9.70;;;;;;;21.83;31.10;94994.00;6142859;28;109136;-57
2023/12/11 02:32:43;;;;;;;11.37;10.37;;;;;;;21.83;30.67;94995.91;6162465;28;109100;-58
2023/12/11 02:35:47;;;;;;;10.60;9.70;;;;;;;21.83;30.80;95004.66;6157135;28;111913;-57
2023/12/11 02:38:50;;;;;;;11.00;9.83;;;;;;;21.82;30.69;94997.78;6156594;28;109860;-58
2023/12/11 02:41:54;;;;;;;10.93;9.93;;;;;;;21.83;30.78;94994.00;6156167;28;109620;-58
2023/12/11 02:44:57;;;;;;;12.20;11.00;;;;;;;21.84;30.90;95000.91;6161273;28;109141;-58
2023/12/11 02:48:02;;;;;;;10.70;9.70;;;;;;;21.83;30.71;95010.00;6157521;28;110139;-58
2023/12/11 02:51:07;;;;;;;11.80;10.70;;;;;;;21.82;30.89;95011.09;6127618;28;109171;-58
2023/12/11 02:54:10;;;;;;;11.50;10.40;;;;;;;21.84;30.89;95010.78;6145524;28;109337;-58
2023/12/11 02:57:14;;;;;;;11.20;10.20;;;;;;;21.84;30.97;95005.47;6161281;28;109253;-58
2023/12/11 03:00:18;;;;;;;12.00;10.90;;;;;;;21.83;30.62;95025.19;6161730;28;108981;-58
2023/12/11 03:03:21;;;;;;;10.83;9.73;;;;;;;21.83;30.74;95017.19;6134840;28;109262;-58
2023/12/11 03:06:24;;;;;;;11.77;10.67;;;;;;;21.83;30.60;95015.31;6154876;28;109198;-58
2023/12/11 03:09:27;;;;;;;10.63;9.63;;;;;;;21.84;30.86;95014.22;6162115;28;111634;-58
2023/12/11 03:12:32;;;;;;;10.53;9.53;;;;;;;21.84;31.21;95005.47;6161771;28;109720;-58
2023/12/11 03:15:35;;;;;;;11.00;10.00;;;;;;;21.81;30.94;95007.63;6150790;28;109405;-58
2023/12/11 03:18:38;;;;;;;10.57;9.57;;;;;;;21.84;30.68;95005.47;6160087;28;109183;-58
2023/12/11 03:21:42;;;;;;;11.77;10.67;;;;;;;21.84;30.76;95011.56;6161260;28;110237;-58
2023/12/11 03:24:46;;;;;;;10.43;9.43;;;;;;;21.84;31.17;94995.59;6154798;28;108872;-58
2023/12/11 03:27:50;;;;;;;10.73;9.83;;;;;;;21.84;31.10;95000.13;6133672;28;109027;-58
2023/12/11 03:30:54;;;;;;;10.30;9.20;;;;;;;21.85;30.65;95002.50;6143701;28;109054;-58
2023/12/11 03:33:57;;;;;;;11.07;10.07;;;;;;;21.84;30.77;94998.25;6160621;28;109059;-57
2023/12/11 03:37:00;;;;;;;10.30;9.40;;;;;;;21.83;31.09;94999.34;6132788;28;109154;-58
2023/12/11 03:40:04;;;;;;;9.87;8.97;;;;;;;21.82;30.89;94997.78;6159185;28;110266;-58
2023/12/11 03:43:10;;;;;;;9.87;8.93;;;;;;;21.83;30.69;95001.22;6156739;28;108798;-58
2023/12/11 03:46:13;;;;;;;10.30;9.30;;;;;;;21.80;30.94;94997.25;6152511;28;110193;-57
2023/12/11 03:49:18;;;;;;;10.33;9.43;;;;;;;21.82;31.00;94997.78;6141640;28;108974;-58
2023/12/11 03:52:21;;;;;;;10.00;9.10;;;;;;;21.81;30.67;94996.16;6159217;28;109427;-59
2023/12/11 03:55:24;;;;;;;10.60;9.60;;;;;;;21.81;30.55;94991.63;6161484;28;110355;-58
2023/12/11 03:58:29;;;;;;;9.93;9.00;;;;;;;21.81;30.81;94996.16;6154836;28;109398;-58
2023/12/11 04:01:32;;;;;;;10.17;9.17;;;;;;;21.81;30.89;94994.28;6154933;28;109885;-57
2023/12/11 04:04:36;;;;;;;10.03;9.13;;;;;;;21.74;30.80;94993.16;6159939;28;109123;-59
2023/12/11 04:07:39;;;;;;;10.20;9.20;;;;;;;21.70;31.39;95005.53;6160293;28;109003;-60
2023/12/11 04:10:42;;;;;;;10.20;9.20;;;;;;;21.71;31.41;95009.75;6149635;28;110597;-59
2023/12/11 04:13:47;;;;;;;9.90;8.90;;;;;;;21.73;31.61;95010.25;6159727;28;109082;-59
2023/12/11 04:16:50;;;;;;;9.17;8.27;;;;;;;21.74;31.40;95006.47;6159357;28;109351;-59
2023/12/11 04:19:53;;;;;;;10.17;9.30;;;;;;;21.74;31.17;95001.16;6151483;28;109391;-60
2023/12/11 04:22:57;;;;;;;11.10;10.10;;;;;;;21.81;31.83;95004.16;6134506;28;109147;-60
2023/12/11 04:26:01;;;;;;;13.50;11.73;;;;;;;21.85;31.40;94994.53;6150759;28;109240;-60
2023/12/11 04:29:05;;;;;;;12.43;11.23;;;;;;;21.78;31.95;94991.47;6138476;28;109668;-59
2023/12/11 04:32:08;;;;;;;13.00;10.10;;;;;;;21.73;31.75;95004.91;6155211;28;109394;-59
2023/12/11 04:35:12;;;;;;;11.40;10.27;;;;;;;21.73;31.85;95002.25;6147310;28;110224;-61
2023/12/11 04:38:15;;;;;;;12.30;9.53;;;;;;;21.75;31.33;95008.84;6160250;28;109112;-59
2023/12/11 04:41:18;;;;;;;13.27;11.20;;;;;;;21.73;31.93;95015.56;6158014;28;109282;-59
2023/12/11 04:44:23;;;;;;;9.77;8.77;;;;;;;21.67;31.78;95016.75;6153180;28;111860;-62
2023/12/11 04:47:26;;;;;;;9.50;8.60;;;;;;;21.68;31.87;95016.47;6156101;28;109245;-59
2023/12/11 04:50:29;;;;;;;8.97;8.00;;;;;;;21.66;31.85;95015.19;6151345;28;109207;-59
2023/12/11 04:53:33;;;;;;;9.57;7.97;;;;;;;21.68;31.69;95018.34;6158058;28;109226;-59
2023/12/11 04:56:36;;;;;;;9.70;7.77;;;;;;;21.68;31.74;95018.34;6145423;28;109296;-59
2023/12/11 04:59:40;;;;;;;8.83;7.93;;;;;;;21.72;31.95;95014.00;6152824;28;110221;-59
2023/12/11 05:02:46;;;;;;;9.30;8.30;;;;;;;21.77;32.14;95004.00;6155206;28;109510;-60
2023/12/11 05:05:49;;;;;;;9.07;7.90;;;;;;;21.86;32.17;95003.31;6154388;28;109771;-60
2023/12/11 05:08:52;;;;;;;8.10;7.30;;;;;;;22.05;32.13;95001.22;6133376;28;109350;-60
2023/12/11 05:11:55;;;;;;;8.60;7.03;;;;;;;22.06;31.86;95008.09;6159683;28;109722;-59
2023/12/11 05:15:01;;;;;;;9.57;7.73;;;;;;;22.07;32.50;95013.13;6160643;28;109104;-59
2023/12/11 05:18:05;;;;;;;7.37;6.70;;;;;;;22.07;32.39;95013.13;6150295;28;109040;-59
2023/12/11 05:21:10;;;;;;;7.67;6.73;;;;;;;21.93;32.10;95009.75;6154291;28;109347;-59
2023/12/11 05:24:13;;;;;;;7.17;6.10;;;;;;;21.88;32.42;95001.13;6159329;28;109080;-59
2023/12/11 05:27:16;;;;;;;8.73;6.33;;;;;;;21.88;32.16;95009.09;6162289;28;109232;-58
2023/12/11 05:30:21;;;;;;;7.03;6.33;;;;;;;21.87;32.04;95018.19;6154555;28;110209;-59
2023/12/11 05:33:26;;;;;;;7.13;5.97;;;;;;;21.85;32.01;95023.03;6163858;28;109106;-58
2023/12/11 05:36:29;;;;;;;7.40;6.63;;;;;;;21.84;32.09;95016.13;6152899;28;109064;-58
2023/12/11 05:39:32;;;;;;;6.30;5.70;;;;;;;21.84;32.04;95019.56;6139890;28;111156;-58
2023/12/11 05:42:36;;;;;;;6.90;5.60;;;;;;;21.79;32.47;95030.31;6129914;28;109809;-59
2023/12/11 05:45:40;;;;;;;6.87;6.13;;;;;;;21.79;31.91;95031.09;6140449;28;111854;-59
2023/12/11 05:48:43;;;;;;;6.20;5.67;;;;;;;21.75;31.87;95032.03;6139699;28;110708;-59
2023/12/11 05:51:47;;;;;;;5.40;4.90;;;;;;;21.74;32.04;95036.56;6139401;28;109029;-59
2023/12/11 05:54:50;;;;;;;6.00;5.30;;;;;;;21.72;32.17;95033.41;6127681;28;109406;-59
2023/12/11 05:57:53;;;;;;;6.10;5.50;;;;;;;21.72;32.18;95029.97;6139217;28;109248;-58
2023/12/11 06:00:58;;;;;;;5.60;5.07;;;;;;;21.72;32.20;95035.31;6139092;28;108991;-59
2023/12/11 06:04:03;;;;;;;6.57;5.67;;;;;;;21.71;32.42;95039.06;6130589;28;109045;-60
2023/12/11 06:07:06;;;;;;;6.50;5.90;;;;;;;21.68;31.87;95051.09;6138220;28;109086;-59
2023/12/11 06:10:10;;;;;;;5.33;4.83;;;;;;;21.69;31.87;95046.56;6138821;28;108987;-59
2023/12/11 06:13:14;;;;;;;6.20;4.97;;;;;;;21.70;31.66;95050.81;6138887;28;109142;-58
2023/12/11 06:16:20;;;;;;;5.20;4.70;;;;;;;21.69;31.86;95055.34;6128599;28;109360;-59
2023/12/11 06:19:23;;;;;;;6.07;5.50;;;;;;;21.69;32.24;95051.88;6138903;28;109035;-59
2023/12/11 06:22:26;;;;;;;5.30;4.80;;;;;;;21.70;31.99;95048.13;6162864;28;109769;-58
2023/12/11 06:25:30;;;;;;;6.70;5.40;;;;;;;21.65;32.27;95048.22;6161898;28;109447;-58
2023/12/11 06:28:33;;;;;;;6.97;5.53;;;;;;;21.61;32.31;95036.63;6152037;28;109250;-59
2023/12/11 06:31:37;;;;;;;6.27;5.70;;;;;;;21.59;32.06;95042.25;6162585;28;109700;-58
2023/12/11 06:34:40;;;;;;;6.47;5.70;;;;;;;21.60;32.28;95046.47;6163016;28;111489;-59
2023/12/11 06:37:43;;;;;;;6.23;5.63;;;;;;;21.59;31.96;95049.44;6136610;28;110901;-59
2023/12/11 06:40:47;;;;;;;6.40;5.77;;;;;;;21.58;32.08;95056.66;6133380;28;110214;-59
2023/12/11 06:43:54;;;;;;;6.13;5.53;;;;;;;21.54;32.29;95053.03;6138440;28;109090;-58
2023/12/11 06:46:59;;;;;;;5.97;5.40;;;;;;;21.55;32.38;95064.47;6138742;28;109191;-58
2023/12/11 06:50:02;;;;;;;6.73;6.03;;;;;;;21.62;31.91;95072.81;6127075;28;109143;-58
2023/12/11 06:53:05;;;;;;;6.73;5.63;;;;;;;21.64;31.56;95059.97;6137911;28;109383;-58
2023/12/11 06:56:10;;;;;;;6.17;5.57;;;;;;;21.65;31.54;95064.22;6138476;28;110156;-58
2023/12/11 06:59:13;;;;;;;7.20;6.00;;;;;;;21.63;31.98;95051.19;6162237;28;109547;-58
2023/12/11 07:02:17;;;;;;;6.80;6.20;;;;;;;21.65;32.07;95050.91;6152329;28;109256;-57
2023/12/11 07:05:21;;;;;;;6.93;6.23;;;;;;;21.67;31.64;95070.03;6161658;28;109200;-58
2023/12/11 07:08:25;;;;;;;6.40;5.80;;;;;;;21.67;32.00;95080.69;6137873;28;111785;-59
2023/12/11 07:11:28;;;;;;;7.07;6.37;;;;;;;21.68;31.81;95080.41;6133467;28;110086;-59
2023/12/11 07:14:31;;;;;;;6.83;6.13;;;;;;;21.69;31.66;95086.50;6132250;28;109293;-59
2023/12/11 07:17:36;;;;;;;7.40;6.70;;;;;;;21.68;31.84;95088.38;6138323;28;109486;-58
2023/12/11 07:20:40;;;;;;;7.07;6.20;;;;;;;21.68;31.88;95083.06;6137299;28;110552;-58
2023/12/11 07:23:43;;;;;;;6.80;5.97;;;;;;;21.70;32.08;95088.09;6127309;28;109963;-59
2023/12/11 07:26:47;;;;;;;6.10;5.60;;;;;;;21.70;31.55;95096.06;6136487;28;109288;-59
2023/12/11 07:29:50;;;;;;;6.60;6.00;;;;;;;21.69;31.87;95103.28;6137404;28;109298;-59
2023/12/11 07:32:54;;;;;;;6.97;6.30;;;;;;;21.87;31.96;95090.91;6137177;28;110094;-60
2023/12/11 07:35:58;;;;;;;7.37;6.77;;;;;;;21.90;32.48;95098.28;6126380;28;109366;-59
2023/12/11 07:39:01;;;;;;;7.00;6.40;;;;;;;21.94;32.11;95098.47;6136942;28;109218;-59
2023/12/11 07:42:04;;;;;;;7.07;6.47;;;;;;;21.91;32.13;95102.53;6137135;28;108812;-60
2023/12/11 07:45:08;;;;;;;7.00;6.40;;;;;;;21.94;32.26;95104.56;6137029;28;109383;-60
2023/12/11 07:48:13;;;;;;;7.03;6.40;;;;;;;21.94;32.24;95107.25;6126508;28;108899;-59
2023/12/11 07:51:19;;;;;;;7.33;6.73;;;;;;;21.94;31.85;95112.56;6136654;28;109098;-59
2023/12/11 07:54:23;;;;;;;7.00;6.40;;;;;;;21.96;32.18;95107.72;6136582;28;109348;-59
2023/12/11 07:57:26;;;;;;;6.70;6.10;;;;;;;21.83;32.08;95105.91;6131411;28;109256;-59
2023/12/11 08:00:30;;;;;;;6.70;6.10;;;;;;;21.78;32.07;95108.66;6132751;28;109181;-59
2023/12/11 08:03:34;;;;;;;6.90;6.30;;;;;;;21.75;32.39;95109.28;6136670;28;109334;-58
2023/12/11 08:06:41;;;;;;;6.80;6.20;;;;;;;21.73;31.83;95111.44;6137129;28;109038;-59
2023/12/11 08:09:45;;;;;;;6.77;6.17;;;;;;;21.73;32.12;95106.13;6125214;28;109145;-58
2023/12/11 08:12:52;;;;;;;6.70;6.00;;;;;;;21.72;32.40;95116.00;6137427;28;111048;-58
2023/12/11 08:15:56;;;;;;;6.40;5.80;;;;;;;21.71;31.95;95110.97;6136436;28;109614;-59
2023/12/11 08:19:01;;;;;;;7.43;6.80;;;;;;;21.70;32.32;95106.72;6136482;28;109337;-58
2023/12/11 08:22:04;;;;;;;7.07;6.47;;;;;;;21.71;32.05;95114.41;6126320;28;109345;-59
2023/12/11 08:25:08;;;;;;;7.03;6.33;;;;;;;21.70;32.14;95106.72;6137092;28;111404;-59
2023/12/11 08:28:11;;;;;;;7.30;6.63;;;;;;;21.69;31.87;95100.63;6135673;28;109283;-59
2023/12/11 08:31:15;;;;;;;7.30;6.60;;;;;;;21.69;32.10;95105.94;6131355;28;110203;-59
2023/12/11 08:34:20;;;;;;;7.20;6.50;;;;;;;21.68;32.42;95112.34;6142719;28;111070;-59
2023/12/11 08:37:24;;;;;;;6.50;5.90;;;;;;;21.69;31.91;95099.81;6160347;28;109226;-59
2023/12/11 08:40:27;;;;;;;6.83;6.23;;;;;;;21.71;32.46;95100.31;6160516;28;109383;-58
2023/12/11 08:43:30;;;;;;;6.63;6.03;;;;;;;21.72;31.76;95104.53;6148919;28;109354;-59
2023/12/11 08:46:34;;;;;;;7.50;6.80;;;;;;;21.73;31.69;95103.47;6160296;28;109519;-58
2023/12/11 08:49:38;;;;;;;7.50;6.80;;;;;;;21.74;32.14;95105.03;6160771;28;109032;-59
2023/12/11 08:52:43;;;;;;;7.23;6.60;;;;;;;21.73;31.80;95098.91;6160931;28;108983;-59
2023/12/11 08:55:46;;;;;;;7.27;6.57;;;;;;;21.75;32.01;95098.63;6149252;28;109250;-59
2023/12/11 08:58:50;;;;;;;6.40;5.60;;;;;;;21.75;31.85;95098.63;6159303;28;108855;-59
2023/12/11 09:01:53;;;;;;;7.00;6.17;;;;;;;21.77;32.03;95089.22;6163788;28;109362;-58
2023/12/11 09:04:58;;;;;;;7.07;6.47;;;;;;;21.76;31.76;95078.88;6163663;28;109358;-59
2023/12/11 09:08:01;;;;;;;6.93;6.33;;;;;;;21.80;31.67;95069.19;6156294;28;109104;-60
2023/12/11 09:11:05;;;;;;;6.43;5.90;;;;;;;21.80;31.82;95061.19;6164526;28;109341;-58
2023/12/11 09:14:08;;;;;;;6.40;5.90;;;;;;;21.79;32.28;95057.75;6164210;28;109055;-59
2023/12/11 09:17:11;;;;;;;7.27;6.40;;;;;;;21.79;31.83;95051.63;6154091;28;108955;-59
2023/12/11 09:20:16;;;;;;;6.50;5.80;;;;;;;21.82;31.84;95056.38;6164158;28;109066;-58
2023/12/11 09:23:19;;;;;;;6.30;5.70;;;;;;;21.83;32.31;95051.84;6164231;28;109062;-59
2023/12/11 09:26:22;;;;;;;6.07;5.53;;;;;;;21.84;31.63;95035.53;6164224;28;109218;-58
2023/12/11 09:29:25;;;;;;;6.10;5.60;;;;;;;21.85;31.74;95039.03;6152749;28;110537;-58
2023/12/11 09:32:29;;;;;;;5.87;5.37;;;;;;;21.86;31.71;95036.06;6164214;28;109650;-59
2023/12/11 09:35:33;;;;;;;6.30;5.70;;;;;;;21.88;32.00;95025.09;6163745;28;110326;-58
2023/12/11 09:38:37;;;;;;;6.00;5.50;;;;;;;22.04;32.30;95027.06;6163821;28;108743;-58
2023/12/11 09:41:40;;;;;;;5.97;5.37;;;;;;;22.06;32.26;95024.88;6153230;28;109295;-58
2023/12/11 09:44:46;;;;;;;6.60;5.30;;;;;;;22.08;32.35;95021.91;6163819;28;109254;-58
2023/12/11 09:47:52;;;;;;;5.63;5.13;;;;;;;22.05;31.97;95020.66;6164470;28;111728;-59
2023/12/11 09:51:16;;;;;;;5.70;5.20;;;;;;;22.03;31.68;95014.84;6155671;28;110092;-62
2023/12/11 09:54:19;;;;;;;6.70;5.00;;;;;;;22.05;32.30;95010.00;6163281;28;109512;-59
2023/12/11 09:57:23;;;;;;;5.57;5.07;;;;;;;22.00;32.24;95004.75;6163718;28;110428;-59
2023/12/11 10:00:26;;;;;;;5.00;4.60;;;;;;;21.98;32.42;94998.97;6162592;28;109234;-59
2023/12/11 10:03:29;;;;;;;5.57;5.00;;;;;;;22.00;31.80;95001.31;6152259;28;109303;-59
2023/12/11 10:06:34;;;;;;;5.27;4.77;;;;;;;22.01;32.40;94998.38;6163026;28;109374;-59
2023/12/11 10:09:37;;;;;;;7.30;5.00;;;;;;;22.00;32.45;94993.31;6162936;28;109295;-59
2023/12/11 10:12:41;;;;;;;5.23;4.80;;;;;;;22.01;32.08;94982.38;6162418;28;109120;-58
2023/12/11 10:15:44;;;;;;;5.10;4.70;;;;;;;22.00;32.14;94978.13;6152252;28;109061;-59
2023/12/11 10:18:50;;;;;;;5.90;5.30;;;;;;;21.99;32.02;94981.09;6163607;28;109549;-59
2023/12/11 10:21:55;;;;;;;5.10;4.67;;;;;;;21.97;31.94;94988.59;6163126;28;108959;-59
2023/12/11 10:24:59;;;;;;;5.10;4.60;;;;;;;21.95;31.94;94980.94;6157697;28;109113;-59
2023/12/11 10:28:07;;;;;;;5.23;4.73;;;;;;;21.95;32.01;94974.81;6157222;28;109281;-59
2023/12/11 10:31:10;;;;;;;4.70;4.20;;;;;;;21.93;32.42;94977.78;6162660;28;111882;-59
2023/12/11 10:34:13;;;;;;;4.70;4.30;;;;;;;21.93;32.18;94977.78;6162617;28;109189;-59
2023/12/11 10:37:18;;;;;;;4.50;4.10;;;;;;;21.95;32.43;94975.59;6138552;28;109217;-59
2023/12/11 10:40:21;;;;;;;4.80;4.33;;;;;;;21.93;32.36;94967.13;6138237;28;109489;-59
2023/12/11 10:43:25;;;;;;;5.07;4.50;;;;;;;21.95;32.41;94972.16;6138229;28;109127;-59
2023/12/11 10:46:28;;;;;;;4.97;4.47;;;;;;;21.98;31.97;94974.19;6138362;28;109065;-59
2023/12/11 10:49:32;;;;;;;4.97;4.47;;;;;;;21.98;32.04;94974.97;6127991;28;109166;-59
2023/12/11 10:52:40;;;;;;;5.00;4.50;;;;;;;22.01;32.12;94968.25;6138986;28;109556;-59
2023/12/11 10:55:43;;;;;;;5.40;4.53;;;;;;;21.98;32.08;94961.66;6138799;28;108786;-59
2023/12/11 10:58:49;;;;;;;4.30;3.90;;;;;;;22.08;32.58;94958.75;6133427;28;108999;-59
2023/12/11 11:01:52;;;;;;;4.87;4.30;;;;;;;22.24;31.92;94961.78;6146342;28;108961;-59
2023/12/11 11:04:57;;;;;;;6.80;4.70;;;;;;;22.31;32.13;94956.00;6161961;28;109354;-59
2023/12/11 11:08:11;;;;;;;6.03;4.10;;;;;;;22.20;32.15;94955.50;6143514;28;110975;-59
2023/12/11 11:11:24;;;;;;;5.20;4.70;;;;;;;22.13;32.06;94943.69;6127587;28;109302;-60
2023/12/11 11:14:47;;;;;;;4.80;4.37;;;;;;;22.06;32.17;94942.28;6137712;28;109201;-60
2023/12/11 11:18:00;;;;;;;4.23;3.83;;;;;;;22.04;32.02;94941.00;6137368;28;109020;-59
2023/12/11 11:21:11;;;;;;;5.43;4.30;;;;;;;22.01;32.16;94939.75;6138002;28;110357;-59
2023/12/11 11:24:32;;;;;;;4.43;3.90;;;;;;;22.00;32.18;94934.69;6125874;28;108975;-58
2023/12/11 11:27:40;;;;;;;4.17;3.77;;;;;;;21.98;32.49;94932.34;6136707;28;110260;-58
2023/12/11 11:30:51;;;;;;;4.50;4.10;;;;;;;21.97;32.17;94919.34;6138069;28;109337;-59
2023/12/11 11:33:56;;;;;;;3.60;3.30;;;;;;;21.96;32.20;94933.75;6125653;28;109427;-60
2023/12/11 11:37:00;;;;;;;4.37;3.97;;;;;;;21.96;31.93;94934.53;6147029;28;109275;-60
2023/12/11 11:40:07;;;;;;;3.77;3.30;;;;;;;21.96;31.91;94926.53;6161191;28;109052;-60
2023/12/11 11:43:11;;;;;;;4.17;3.77;;;;;;;21.97;32.00;94925.44;6161519;28;109679;-60
2023/12/11 11:46:14;;;;;;;3.70;3.40;;;;;;;21.96;32.42;94907.91;6151115;28;109142;-59
2023/12/11 11:49:31;;;;;;;4.00;3.63;;;;;;;21.94;32.01;94901.31;6161817;28;112306;-59
2023/12/11 11:52:38;;;;;;;4.40;4.00;;;;;;;21.95;31.96;94903.66;6161560;28;110583;-59
2023/12/11 11:55:43;;;;;;;3.97;3.60;;;;;;;21.94;31.87;94904.75;6156438;28;109005;-59
2023/12/11 11:58:46;;;;;;;4.50;3.70;;;;;;;21.92;31.77;94898.16;6156166;28;110741;-59
2023/12/11 12:01:54;;;;;;;4.10;3.70;;;;;;;21.95;32.28;94881.56;6161216;28;108949;-60
2023/12/11 12:05:06;;;;;;;4.03;3.63;;;;;;;22.04;32.20;94885.06;6160442;28;109063;-59
2023/12/11 12:08:13;;;;;;;4.53;3.23;;;;;;;21.99;31.76;94869.19;6149709;28;109104;-57
2023/12/11 12:11:18;;;;;;;4.30;3.47;;;;;;;21.96;32.20;94875.13;6161003;28;109238;-58
2023/12/11 12:14:21;;;;;;;4.70;3.53;;;;;;;21.95;31.85;94865.56;6160860;28;109180;-59
2023/12/11 12:17:25;;;;;;;4.13;3.57;;;;;;;21.96;32.02;94859.16;6161102;28;109752;-58
2023/12/11 12:20:30;;;;;;;3.97;3.60;;;;;;;21.95;32.39;94847.72;6150114;28;110225;-58
2023/12/11 12:23:34;;;;;;;3.77;3.30;;;;;;;21.95;31.89;94836.28;6160980;28;109039;-58
2023/12/11 12:26:42;;;;;;;4.00;3.60;;;;;;;21.94;31.89;94830.16;6161032;28;109221;-58
2023/12/11 12:29:46;;;;;;;4.10;3.43;;;;;;;21.95;32.04;94826.41;6155817;28;109021;-58
2023/12/11 12:32:52;;;;;;;3.97;3.57;;;;;;;21.95;31.94;94820.28;6155393;28;110143;-58
2023/12/11 12:35:55;;;;;;;3.50;3.20;;;;;;;21.97;32.02;94818.09;6159871;28;110099;-59
2023/12/11 12:38:59;;;;;;;4.00;3.53;;;;;;;21.97;32.25;94815.44;6135780;28;109357;-59
2023/12/11 12:42:04;;;;;;;4.20;3.13;;;;;;;21.97;32.16;94813.56;6131230;28;109335;-59
2023/12/11 12:45:09;;;;;;;4.40;3.63;;;;;;;21.97;32.38;94794.91;6160808;28;110480;-59
2023/12/11 12:48:14;;;;;;;4.57;3.30;;;;;;;21.96;32.38;94769.34;6160610;28;110484;-59
2023/12/11 12:51:18;;;;;;;3.30;3.00;;;;;;;21.95;32.28;94783.00;6160367;28;109203;-59
2023/12/11 12:54:22;;;;;;;3.60;3.13;;;;;;;21.93;32.28;94775.31;6149561;28;110171;-59
2023/12/11 12:57:26;;;;;;;3.47;3.17;;;;;;;21.91;32.13;94774.84;6161050;28;109452;-58
2023/12/11 13:00:34;;;;;;;3.33;3.03;;;;;;;21.93;32.36;94780.63;6160158;28;109572;-59
2023/12/11 13:03:37;;;;;;;4.50;3.73;;;;;;;21.95;32.28;94780.31;6159932;28;109061;-59
2023/12/11 13:06:41;;;;;;;4.00;3.60;;;;;;;21.94;31.90;94765.44;6143199;28;109639;-60
2023/12/11 13:09:46;;;;;;;3.70;3.20;;;;;;;22.04;32.79;94759.81;6149358;28;108716;-60
2023/12/11 13:12:50;;;;;;;3.80;3.50;;;;;;;22.16;32.44;94757.31;6159943;28;109286;-59
2023/12/11 13:15:54;;;;;;;3.67;3.37;;;;;;;22.20;32.83;94755.59;6150152;28;109487;-59
2023/12/11 13:18:57;;;;;;;3.50;3.20;;;;;;;22.22;32.61;94747.28;6159713;28;109405;-58
2023/12/11 13:22:00;;;;;;;3.53;3.23;;;;;;;22.23;32.87;94754.97;6160334;28;108955;-59
2023/12/11 13:25:04;;;;;;;4.07;3.00;;;;;;;22.19;32.68;94766.56;6159676;28;109046;-59
2023/12/11 13:28:09;;;;;;;3.93;3.27;;;;;;;22.15;32.28;94773.59;6149117;28;110226;-59
2023/12/11 13:31:12;;;;;;;3.47;3.17;;;;;;;22.19;33.65;94778.03;6159411;28;109457;-59
2023/12/11 13:34:15;;;;;;;3.80;3.40;;;;;;;22.22;32.50;94784.59;6159657;28;109322;-59
2023/12/11 13:37:19;;;;;;;4.13;3.20;;;;;;;22.23;32.60;94775.50;6157871;28;109072;-59
2023/12/11 13:40:23;;;;;;;3.87;3.53;;;;;;;22.21;33.11;94791.03;6148919;28;109224;-60
2023/12/11 13:43:27;;;;;;;3.70;3.30;;;;;;;22.17;32.30;94782.06;6159744;28;109252;-59
2023/12/11 13:46:30;;;;;;;4.43;3.80;;;;;;;22.06;32.36;94793.03;6159536;28;109060;-59
2023/12/11 13:49:33;;;;;;;3.50;3.20;;;;;;;22.01;32.44;94792.38;6158522;28;109150;-58
2023/12/11 13:52:37;;;;;;;3.73;3.30;;;;;;;21.96;32.51;94796.00;6158226;28;109217;-59
2023/12/11 13:55:40;;;;;;;3.20;2.90;;;;;;;21.93;32.67;94796.63;6163485;28;109257;-59
2023/12/11 13:58:44;;;;;;;3.60;3.30;;;;;;;21.91;32.28;94796.16;6163365;28;109298;-59
2023/12/11 14:01:49;;;;;;;4.17;3.30;;;;;;;21.89;32.86;94794.91;6152382;28;108909;-58
2023/12/11 14:04:52;;;;;;;3.67;3.37;;;;;;;21.86;32.69;94780.31;6163917;28;111715;-59
2023/12/11 14:07:57;;;;;;;3.97;3.50;;;;;;;21.86;32.90;94790.19;6162784;28;108754;-58
2023/12/11 14:11:00;;;;;;;5.03;3.57;;;;;;;21.84;32.65;94793.13;6115105;28;109394;-59
2023/12/11 14:14:04;;;;;;;3.27;2.93;;;;;;;21.81;32.47;94788.41;6104147;28;111617;-59